Weather at Aerodromo de Atouguia da Baleia

Public forecast

Using degrees Celsius for public forecast. Weather courtesy of forecast.io.

Closest aviation weather report (METAR) to Aerodromo de Atouguia da Baleia

Report is more than 6 hours old.

Closest report is Ota Air Base, 22.8 nm (42.2 km) SE. Retrieved 2016/03/04 10:00 UTC (5 years ago):

LPOT 041000Z 31007KT 270V340 9999 FEW015 BKN022 13/09 Q1016

Closest aviation forecast (TAF) to Aerodromo de Atouguia da Baleia

Forecast is more than 12 hours old.

Closest forecast is Alverca Air Base, 31.0 nm (57.4 km) SSE. Retrieved 2021/01/19 12:00 UTC (7 days ago):

TAF LPAR 191103Z 1912/1921 06005KT 3000 BR FEW003 BECMG 1912/1915 18010KT 9999 NSW SCT020 BKN030 PROB40 TEMPO 1913/1921 19012G22KT 7000 -SHRA SCT015 BKN022